createdAt,value
2017-01-05T00:01:02.312Z,1007.75
2017-01-05T00:02:13.021Z,1007.8
2017-01-05T00:03:23.735Z,1007.78
2017-01-05T00:04:34.500Z,1007.81
2017-01-05T00:05:44.824Z,1007.84
2017-01-05T00:06:55.143Z,1007.86
2017-01-05T00:08:05.860Z,1007.89
2017-01-05T00:09:16.583Z,1007.9
2017-01-05T00:10:27.294Z,1007.94
2017-01-05T00:11:37.617Z,1007.96
2017-01-05T00:12:48.324Z,1007.99
2017-01-05T00:13:58.638Z,1008.06
2017-01-05T00:15:08.970Z,1008.09
2017-01-05T00:16:19.691Z,1008.08
2017-01-05T00:17:30.030Z,1008.12
2017-01-05T00:18:40.362Z,1008.1
2017-01-05T00:19:50.693Z,1008.14
2017-01-05T00:21:01.009Z,1008.18
2017-01-05T00:22:11.335Z,1008.25
2017-01-05T00:23:21.649Z,1008.25
2017-01-05T00:24:31.181Z,1008.28
2017-01-05T00:25:41.914Z,1008.33
2017-01-05T00:26:52.228Z,1008.28
2017-01-05T00:28:02.584Z,1008.31
2017-01-05T00:29:12.922Z,1008.36
2017-01-05T00:30:23.252Z,1008.45
2017-01-05T00:31:33.584Z,1008.45
2017-01-05T00:32:43.122Z,1008.49
2017-01-05T00:33:53.437Z,1008.5
2017-01-05T00:35:03.770Z,1008.55
2017-01-05T00:36:13.687Z,1008.56
2017-01-05T00:37:23.607Z,1008.64
2017-01-05T00:38:34.323Z,1008.67
2017-01-05T00:39:44.240Z,1008.74
2017-01-05T00:40:54.565Z,1008.78
2017-01-05T00:42:05.280Z,1008.8
2017-01-05T00:43:15.994Z,1008.86
2017-01-05T00:44:25.526Z,1008.9
2017-01-05T00:45:35.063Z,1008.9
2017-01-05T00:46:44.982Z,1008.89
2017-01-05T00:47:55.711Z,1008.94
2017-01-05T00:49:06.035Z,1008.93
2017-01-05T00:50:15.952Z,1008.93
2017-01-05T00:51:26.271Z,1009.03
2017-01-05T00:52:36.995Z,1009.06
2017-01-05T00:53:47.712Z,1009.03
2017-01-05T00:54:58.035Z,1009.1
2017-01-05T00:56:08.374Z,1009.08
2017-01-05T00:57:18.291Z,1009.11
2017-01-05T00:58:29.017Z,1009.13
2017-01-05T00:59:38.540Z,1009.15
2017-01-05T01:00:48.095Z,1009.15
2017-01-05T01:01:58.435Z,1009.19
2017-01-05T01:03:08.758Z,1009.2
2017-01-05T01:04:19.477Z,1009.24
2017-01-05T01:05:30.183Z,1009.19
2017-01-05T01:06:40.895Z,1009.23
2017-01-05T01:07:51.608Z,1009.27
2017-01-05T01:09:01.931Z,1009.23
2017-01-05T01:10:12.264Z,1009.27
2017-01-05T01:11:22.984Z,1009.27
2017-01-05T01:12:33.701Z,1009.3
2017-01-05T01:13:44.475Z,1009.33
2017-01-05T01:14:54.398Z,1009.39
2017-01-05T01:16:04.715Z,1009.38
2017-01-05T01:17:14.641Z,1009.42
2017-01-05T01:18:25.367Z,1009.45
2017-01-05T01:19:36.086Z,1009.54
2017-01-05T01:20:45.622Z,1009.53
2017-01-05T01:21:55.940Z,1009.59
2017-01-05T01:23:06.273Z,1009.59
2017-01-05T01:24:16.583Z,1009.65
2017-01-05T01:25:26.907Z,1009.7
2017-01-05T01:26:37.258Z,1009.72
2017-01-05T01:27:47.189Z,1009.75
2017-01-05T01:28:57.509Z,1009.78
2017-01-05T01:30:07.818Z,1009.78
2017-01-05T01:31:18.540Z,1009.8
2017-01-05T01:32:29.280Z,1009.89
2017-01-05T01:33:38.803Z,1009.87
2017-01-05T01:34:49.111Z,1009.91
2017-01-05T01:35:59.033Z,1009.9
2017-01-05T01:37:09.356Z,1009.96
2017-01-05T01:38:18.896Z,1009.96
2017-01-05T01:39:28.416Z,1009.97
2017-01-05T01:40:38.739Z,1010.03
2017-01-05T01:41:49.075Z,1010.04
2017-01-05T01:42:59.000Z,1010.07
2017-01-05T01:44:09.313Z,1010.11
2017-01-05T01:45:20.019Z,1010.17
2017-01-05T01:46:30.727Z,1010.14
2017-01-05T01:47:41.440Z,1010.2
2017-01-05T01:48:52.277Z,1010.21
2017-01-05T01:50:02.985Z,1010.2
2017-01-05T01:51:13.303Z,1010.23
2017-01-05T01:52:24.013Z,1010.24
2017-01-05T01:53:34.335Z,1010.32
2017-01-05T01:54:44.261Z,1010.28
2017-01-05T01:55:54.978Z,1010.31
2017-01-05T01:57:05.302Z,1010.4
2017-01-05T01:58:15.628Z,1010.41
2017-01-05T01:59:25.542Z,1010.44
2017-01-05T02:00:36.259Z,1010.52
2017-01-05T02:01:46.975Z,1010.49
2017-01-05T02:02:57.292Z,1010.53
2017-01-05T02:04:07.609Z,1010.52
2017-01-05T02:05:17.934Z,1010.57
2017-01-05T02:06:28.258Z,1010.59
2017-01-05T02:07:38.976Z,1010.66
2017-01-05T02:08:48.907Z,1010.67
2017-01-05T02:09:58.828Z,1010.69
2017-01-05T02:11:09.148Z,1010.71
2017-01-05T02:12:18.680Z,1010.77
2017-01-05T02:13:29.001Z,1010.76
2017-01-05T02:14:39.324Z,1010.78
2017-01-05T02:15:49.643Z,1010.81
2017-01-05T02:16:59.561Z,1010.87
2017-01-05T02:18:09.091Z,1010.88
2017-01-05T02:19:19.033Z,1010.89
2017-01-05T02:20:29.346Z,1010.91
2017-01-05T02:21:38.912Z,1010.95
2017-01-05T02:22:49.228Z,1011.01
2017-01-05T02:23:59.139Z,1011.03
2017-01-05T02:25:08.662Z,1011.02
2017-01-05T02:26:19.385Z,1010.98
2017-01-05T02:27:29.702Z,1011.01
2017-01-05T02:28:40.029Z,1011.06
2017-01-05T02:29:50.339Z,1011.06
2017-01-05T02:31:00.656Z,1011.08
2017-01-05T02:32:11.372Z,1011.1
2017-01-05T02:33:21.682Z,1011.09
2017-01-05T02:34:32.417Z,1011.13
2017-01-05T02:35:41.948Z,1011.17
2017-01-05T02:36:52.259Z,1011.24
2017-01-05T02:38:02.582Z,1011.22
2017-01-05T02:39:12.902Z,1011.25
2017-01-05T02:40:22.825Z,1011.3
2017-01-05T02:41:33.526Z,1011.32
2017-01-05T02:42:44.243Z,1011.37
2017-01-05T02:43:54.566Z,1011.35
2017-01-05T02:45:04.486Z,1011.33
2017-01-05T02:46:14.422Z,1011.38
2017-01-05T02:47:24.345Z,1011.39
2017-01-05T02:48:35.096Z,1011.4
2017-01-05T02:49:45.416Z,1011.41
2017-01-05T02:50:56.135Z,1011.41
2017-01-05T02:52:06.457Z,1011.51
2017-01-05T02:53:17.184Z,1011.54
2017-01-05T02:54:27.526Z,1011.51
2017-01-05T02:55:37.861Z,1011.58
2017-01-05T02:56:47.815Z,1011.6
2017-01-05T02:57:57.754Z,1011.61
2017-01-05T02:59:06.880Z,1011.65
2017-01-05T03:00:17.590Z,1011.77
2017-01-05T03:01:28.311Z,1011.74
2017-01-05T03:02:38.624Z,1011.77
2017-01-05T03:03:48.153Z,1011.79
2017-01-05T03:04:58.464Z,1011.86
2017-01-05T03:06:09.190Z,1011.81
2017-01-05T03:07:19.104Z,1011.85
2017-01-05T03:08:28.634Z,1011.86
2017-01-05T03:09:38.951Z,1011.91
2017-01-05T03:10:49.284Z,1011.97
2017-01-05T03:11:59.610Z,1011.91
2017-01-05T03:13:09.924Z,1012.01
2017-01-05T03:14:20.314Z,1012.05
2017-01-05T03:15:30.625Z,1012.12
2017-01-05T03:16:40.948Z,1012.1
2017-01-05T03:17:51.677Z,1012.14
2017-01-05T03:19:01.991Z,1012.18
2017-01-05T03:20:12.695Z,1012.2
2017-01-05T03:21:23.411Z,1012.22
2017-01-05T03:22:34.119Z,1012.2
2017-01-05T03:23:44.835Z,1012.21
2017-01-05T03:24:55.558Z,1012.27
2017-01-05T03:26:05.873Z,1012.28
2017-01-05T03:27:16.199Z,1012.32
2017-01-05T03:28:26.516Z,1012.38
2017-01-05T03:29:37.235Z,1012.37
2017-01-05T03:30:46.769Z,1012.38
2017-01-05T03:31:57.092Z,1012.43
2017-01-05T03:33:07.418Z,1012.43
2017-01-05T03:34:17.732Z,1012.45
2017-01-05T03:35:28.458Z,1012.5
2017-01-05T03:36:38.778Z,1012.45
2017-01-05T03:37:48.705Z,1012.54
2017-01-05T03:38:58.625Z,1012.55
2017-01-05T03:40:08.548Z,1012.57
2017-01-05T03:41:18.473Z,1012.56
2017-01-05T03:42:27.997Z,1012.6
2017-01-05T03:43:37.530Z,1012.57
2017-01-05T03:44:47.841Z,1012.56
2017-01-05T03:45:57.763Z,1012.64
2017-01-05T03:47:07.688Z,1012.64
2017-01-05T03:48:16.825Z,1012.68
2017-01-05T03:49:26.753Z,1012.72
2017-01-05T03:50:36.680Z,1012.74
2017-01-05T03:51:47.409Z,1012.83
2017-01-05T03:52:57.329Z,1012.82
2017-01-05T03:54:07.649Z,1012.86
2017-01-05T03:55:18.376Z,1012.9
2017-01-05T03:56:29.086Z,1012.91
2017-01-05T03:57:39.425Z,1012.87
2017-01-05T03:58:48.952Z,1012.96
2017-01-05T03:59:59.265Z,1013
2017-01-05T04:01:09.233Z,1013.01
2017-01-05T04:02:19.563Z,1013.04
2017-01-05T04:03:29.874Z,1013.01
2017-01-05T04:04:40.183Z,1013.12
2017-01-05T04:05:50.119Z,1013.11
2017-01-05T04:07:00.436Z,1013.23
2017-01-05T04:08:11.163Z,1013.23
2017-01-05T04:09:21.483Z,1013.23
2017-01-05T04:10:31.800Z,1013.26
2017-01-05T04:11:42.115Z,1013.28
2017-01-05T04:12:52.040Z,1013.31
2017-01-05T04:14:02.350Z,1013.38
2017-01-05T04:15:13.058Z,1013.37
2017-01-05T04:16:23.364Z,1013.43
2017-01-05T04:17:34.087Z,1013.47
2017-01-05T04:18:44.414Z,1013.56
2017-01-05T04:19:54.725Z,1013.56
2017-01-05T04:21:05.035Z,1013.57
2017-01-05T04:22:15.347Z,1013.57
2017-01-05T04:23:25.669Z,1013.58
2017-01-05T04:24:35.592Z,1013.57
2017-01-05T04:25:45.150Z,1013.59
2017-01-05T04:26:55.467Z,1013.6
2017-01-05T04:28:05.384Z,1013.64
2017-01-05T04:29:16.104Z,1013.59
2017-01-05T04:30:26.420Z,1013.68
2017-01-05T04:31:36.744Z,1013.75
2017-01-05T04:32:47.060Z,1013.71
2017-01-05T04:33:57.778Z,1013.8
2017-01-05T04:35:08.107Z,1013.83
2017-01-05T04:36:18.823Z,1013.83
2017-01-05T04:37:28.744Z,1013.88
2017-01-05T04:38:39.086Z,1013.88
2017-01-05T04:39:49.000Z,1013.92
2017-01-05T04:40:58.920Z,1013.98
2017-01-05T04:42:09.649Z,1014
2017-01-05T04:43:19.972Z,1014.02
2017-01-05T04:44:30.293Z,1014.03
2017-01-05T04:45:40.222Z,1014.04
2017-01-05T04:46:50.142Z,1013.99
2017-01-05T04:48:00.868Z,1014.07
2017-01-05T04:49:11.196Z,1014.13
2017-01-05T04:50:21.117Z,1014.15
2017-01-05T04:51:31.826Z,1014.2
2017-01-05T04:52:42.158Z,1014.2
2017-01-05T04:53:52.875Z,1014.2
2017-01-05T04:55:03.189Z,1014.23
2017-01-05T04:56:13.906Z,1014.25
2017-01-05T04:57:24.235Z,1014.29
2017-01-05T04:58:34.152Z,1014.33
2017-01-05T04:59:44.862Z,1014.39
2017-01-05T05:00:55.188Z,1014.4
2017-01-05T05:02:05.943Z,1014.42
2017-01-05T05:03:16.267Z,1014.48
2017-01-05T05:04:26.984Z,1014.5
2017-01-05T05:05:36.113Z,1014.54
2017-01-05T05:06:46.040Z,1014.5
2017-01-05T05:07:56.363Z,1014.53
2017-01-05T05:09:06.391Z,1014.53
2017-01-05T05:10:17.096Z,1014.5
2017-01-05T05:11:27.412Z,1014.51
2017-01-05T05:12:37.745Z,1014.51
2017-01-05T05:13:48.065Z,1014.5
2017-01-05T05:14:58.383Z,1014.6
2017-01-05T05:16:08.695Z,1014.63
2017-01-05T05:17:19.371Z,1014.63
2017-01-05T05:18:29.001Z,1014.69
2017-01-05T05:19:38.923Z,1014.72
2017-01-05T05:20:49.272Z,1014.76
2017-01-05T05:21:59.618Z,1014.76
2017-01-05T05:23:09.950Z,1014.84
2017-01-05T05:24:20.270Z,1014.82
2017-01-05T05:25:30.993Z,1014.87
2017-01-05T05:26:41.313Z,1014.9
2017-01-05T05:27:52.027Z,1014.95
2017-01-05T05:29:02.746Z,1014.97
2017-01-05T05:30:13.470Z,1014.92
2017-01-05T05:31:23.883Z,1014.99
2017-01-05T05:32:34.213Z,1015.04
2017-01-05T05:33:44.139Z,1015.08
2017-01-05T05:34:54.471Z,1015.07
2017-01-05T05:36:04.407Z,1015.12
2017-01-05T05:37:14.737Z,1015.14
2017-01-05T05:38:25.057Z,1015.13
2017-01-05T05:39:35.781Z,1015.18
2017-01-05T05:40:46.101Z,1015.23
2017-01-05T05:41:56.017Z,1015.22
2017-01-05T05:43:05.937Z,1015.29
2017-01-05T05:44:15.866Z,1015.29
2017-01-05T05:45:26.228Z,1015.34
2017-01-05T05:46:36.184Z,1015.34
2017-01-05T05:47:46.507Z,1015.39
2017-01-05T05:48:56.821Z,1015.38
2017-01-05T05:50:06.741Z,1015.41
2017-01-05T05:51:17.054Z,1015.41
2017-01-05T05:52:27.380Z,1015.45
2017-01-05T05:53:37.710Z,1015.46
2017-01-05T05:54:48.424Z,1015.54
2017-01-05T05:55:58.745Z,1015.57
2017-01-05T05:57:09.460Z,1015.6
2017-01-05T05:58:19.394Z,1015.58
2017-01-05T05:59:29.559Z,1015.58
2017-01-05T06:00:39.880Z,1015.63
2017-01-05T06:01:50.186Z,1015.65
2017-01-05T06:03:00.897Z,1015.66
2017-01-05T06:04:11.616Z,1015.72
2017-01-05T06:05:21.947Z,1015.74
2017-01-05T06:06:32.273Z,1015.75
2017-01-05T06:07:42.205Z,1015.79
2017-01-05T06:08:52.526Z,1015.81
2017-01-05T06:10:02.849Z,1015.87
2017-01-05T06:11:12.400Z,1015.86
2017-01-05T06:12:23.111Z,1015.92
2017-01-05T06:13:33.046Z,1015.95
2017-01-05T06:14:43.357Z,1015.98
2017-01-05T06:15:53.680Z,1016.01
2017-01-05T06:17:03.629Z,1015.99
2017-01-05T06:18:13.951Z,1016.06
2017-01-05T06:19:24.687Z,1016.09
2017-01-05T06:20:34.610Z,1016.15
2017-01-05T06:21:44.939Z,1016.2
2017-01-05T06:22:55.668Z,1016.2
2017-01-05T06:24:06.008Z,1016.19
2017-01-05T06:25:16.321Z,1016.3
2017-01-05T06:26:26.267Z,1016.24
2017-01-05T06:27:36.216Z,1016.28
2017-01-05T06:28:46.948Z,1016.33
2017-01-05T06:29:57.655Z,1016.36
2017-01-05T06:31:07.576Z,1016.4
2017-01-05T06:32:17.501Z,1016.38
2017-01-05T06:33:28.228Z,1016.5
2017-01-05T06:34:38.951Z,1016.49
2017-01-05T06:35:49.706Z,1016.53
2017-01-05T06:37:00.026Z,1016.53
2017-01-05T06:38:10.353Z,1016.64
2017-01-05T06:39:20.669Z,1016.66
2017-01-05T06:40:31.391Z,1016.63
2017-01-05T06:41:41.725Z,1016.66
2017-01-05T06:42:52.442Z,1016.71
2017-01-05T06:44:02.753Z,1016.71
2017-01-05T06:45:13.075Z,1016.71
2017-01-05T06:46:22.989Z,1016.7
2017-01-05T06:47:32.506Z,1016.77
2017-01-05T06:48:42.822Z,1016.84
2017-01-05T06:49:53.158Z,1016.79
2017-01-05T06:51:03.081Z,1016.88
2017-01-05T06:52:13.010Z,1016.91
2017-01-05T06:53:23.734Z,1016.98
2017-01-05T06:54:34.048Z,1017.03
2017-01-05T06:55:44.365Z,1017.04
2017-01-05T06:56:54.697Z,1017.13
2017-01-05T06:58:04.315Z,1017.09
2017-01-05T06:59:14.642Z,1017.12
2017-01-05T07:00:24.960Z,1017.15
2017-01-05T07:01:35.679Z,1017.15
2017-01-05T07:02:46.007Z,1017.19
2017-01-05T07:03:56.380Z,1017.23
2017-01-05T07:05:07.124Z,1017.31
2017-01-05T07:06:17.088Z,1017.32
2017-01-05T07:07:27.807Z,1017.36
2017-01-05T07:08:38.137Z,1017.41
2017-01-05T07:09:48.509Z,1017.49
2017-01-05T07:10:58.450Z,1017.57
2017-01-05T07:12:09.202Z,1017.58
2017-01-05T07:13:19.619Z,1017.59
2017-01-05T07:14:30.374Z,1017.64
2017-01-05T07:15:41.113Z,1017.65
2017-01-05T07:16:51.062Z,1017.68
2017-01-05T07:18:00.605Z,1017.65
2017-01-05T07:19:10.558Z,1017.69
2017-01-05T07:20:21.293Z,1017.8
2017-01-05T07:21:32.041Z,1017.76
2017-01-05T07:22:42.793Z,1017.85
2017-01-05T07:23:53.122Z,1017.86
2017-01-05T07:25:02.313Z,1017.88
2017-01-05T07:26:12.236Z,1017.9
2017-01-05T07:27:22.569Z,1017.94
2017-01-05T07:28:32.912Z,1017.98
2017-01-05T07:29:43.673Z,1018.06
2017-01-05T07:30:54.045Z,1018.1
2017-01-05T07:32:03.589Z,1018.16
2017-01-05T07:33:13.522Z,1018.19
2017-01-05T07:34:23.864Z,1018.23
2017-01-05T07:35:34.636Z,1018.27
2017-01-05T07:36:44.592Z,1018.34
2017-01-05T07:37:54.518Z,1018.35
2017-01-05T07:39:04.857Z,1018.4
2017-01-05T07:40:15.203Z,1018.4
2017-01-05T07:41:25.541Z,1018.46
2017-01-05T07:42:36.281Z,1018.43
2017-01-05T07:43:46.608Z,1018.48
2017-01-05T07:44:57.340Z,1018.47
2017-01-05T07:46:08.061Z,1018.52
2017-01-05T07:47:18.404Z,1018.5
2017-01-05T07:48:29.229Z,1018.54
2017-01-05T07:49:39.613Z,1018.58
2017-01-05T07:50:49.955Z,1018.63
2017-01-05T07:51:59.905Z,1018.64
2017-01-05T07:53:10.310Z,1018.62
2017-01-05T07:54:20.676Z,1018.66
2017-01-05T07:55:30.624Z,1018.66
2017-01-05T07:56:40.976Z,1018.75
2017-01-05T07:57:51.590Z,1018.75
2017-01-05T07:59:01.915Z,1018.84
2017-01-05T08:00:12.652Z,1018.86
2017-01-05T08:01:22.596Z,1018.88
2017-01-05T08:02:32.534Z,1018.96
2017-01-05T08:03:42.893Z,1019.02
2017-01-05T08:04:52.868Z,1018.99
2017-01-05T08:06:03.636Z,1019
2017-01-05T08:07:13.965Z,1019.07
2017-01-05T08:08:24.334Z,1019.07
2017-01-05T08:09:35.108Z,1019.14
2017-01-05T08:10:45.469Z,1019.14
2017-01-05T08:11:55.870Z,1019.19
2017-01-05T08:13:06.204Z,1019.24
2017-01-05T08:14:16.146Z,1019.28
2017-01-05T08:15:25.710Z,1019.24
2017-01-05T08:16:36.474Z,1019.35
2017-01-05T08:17:46.422Z,1019.46
2017-01-05T08:18:57.183Z,1019.57
2017-01-05T08:20:07.918Z,1019.49
2017-01-05T08:21:17.861Z,1019.55
2017-01-05T08:22:28.625Z,1019.52
2017-01-05T08:23:39.352Z,1019.53
2017-01-05T08:24:48.888Z,1019.63
2017-01-05T08:25:59.599Z,1019.66
2017-01-05T08:27:10.314Z,1019.71
2017-01-05T08:28:20.667Z,1019.73
2017-01-05T08:29:31.436Z,1019.78
2017-01-05T08:30:41.748Z,1019.69
2017-01-05T08:31:52.069Z,1019.74
2017-01-05T08:33:02.399Z,1019.7
2017-01-05T08:34:13.145Z,1019.71
2017-01-05T08:35:23.471Z,1019.75
2017-01-05T08:36:33.785Z,1019.74
2017-01-05T08:37:44.117Z,1019.77
2017-01-05T08:38:54.810Z,1019.79
2017-01-05T08:40:05.538Z,1019.85
2017-01-05T08:41:15.874Z,1019.88
2017-01-05T08:42:26.201Z,1019.91
2017-01-05T08:43:36.117Z,1019.88
2017-01-05T08:44:46.421Z,1019.95
2017-01-05T08:45:57.152Z,1019.95
2017-01-05T08:47:07.884Z,1020.01
2017-01-05T08:48:18.623Z,1019.99
2017-01-05T08:49:29.340Z,1020.02
2017-01-05T08:50:38.853Z,1020.03
2017-01-05T08:51:49.596Z,1020.08
2017-01-05T08:52:59.529Z,1020.14
2017-01-05T08:54:09.877Z,1020.15
2017-01-05T08:55:19.811Z,1020.18
2017-01-05T08:56:30.144Z,1020.21
2017-01-05T08:57:40.857Z,1020.24
2017-01-05T08:58:51.593Z,1020.29
2017-01-05T09:00:02.345Z,1020.29
2017-01-05T09:01:12.288Z,1020.31
2017-01-05T09:02:21.821Z,1020.38
2017-01-05T09:03:32.153Z,1020.42
2017-01-05T09:04:42.893Z,1020.46
2017-01-05T09:05:53.232Z,1020.46
2017-01-05T09:07:03.190Z,1020.51
2017-01-05T09:08:13.908Z,1020.54
2017-01-05T09:09:23.892Z,1020.62
2017-01-05T09:10:33.427Z,1020.62
2017-01-05T09:11:43.786Z,1020.67
2017-01-05T09:12:54.140Z,1020.69
2017-01-05T09:14:04.079Z,1020.76
2017-01-05T09:15:14.400Z,1020.78
2017-01-05T09:16:24.755Z,1020.81
2017-01-05T09:17:35.102Z,1020.81
2017-01-05T09:18:45.821Z,1020.87
2017-01-05T09:19:56.182Z,1020.88
2017-01-05T09:21:06.211Z,1020.91
2017-01-05T09:22:16.132Z,1020.88
2017-01-05T09:23:26.918Z,1020.95
2017-01-05T09:24:36.891Z,1020.98
2017-01-05T09:25:47.937Z,1021
2017-01-05T09:26:58.279Z,1021.07
2017-01-05T09:28:09.021Z,1021.07
2017-01-05T09:29:19.370Z,1021.06
2017-01-05T09:30:29.703Z,1021.13
2017-01-05T09:31:39.635Z,1021.11
2017-01-05T09:32:50.356Z,1021.14
2017-01-05T09:34:01.076Z,1021.11
2017-01-05T09:35:11.409Z,1021.14
2017-01-05T09:36:23.364Z,1021.22
2017-01-05T09:37:33.300Z,1021.22
2017-01-05T09:38:43.252Z,1021.23
2017-01-05T09:39:53.197Z,1021.18
2017-01-05T09:41:03.546Z,1021.23
2017-01-05T09:42:13.507Z,1021.24
2017-01-05T09:43:24.236Z,1021.27
2017-01-05T09:44:34.576Z,1021.27
2017-01-05T09:45:44.923Z,1021.31
2017-01-05T09:46:55.261Z,1021.37
2017-01-05T09:48:06.017Z,1021.34
2017-01-05T09:49:15.953Z,1021.36
2017-01-05T09:50:26.296Z,1021.38
2017-01-05T09:51:36.263Z,1021.35
2017-01-05T09:52:46.266Z,1021.36
2017-01-05T09:53:56.618Z,1021.43
2017-01-05T09:55:07.348Z,1021.5
2017-01-05T09:56:17.690Z,1021.49
2017-01-05T09:57:28.413Z,1021.5
2017-01-05T09:58:39.181Z,1021.47
2017-01-05T09:59:49.914Z,1021.53
2017-01-05T10:01:00.641Z,1021.52
2017-01-05T10:02:10.983Z,1021.55
2017-01-05T10:03:21.763Z,1021.56
2017-01-05T10:04:31.297Z,1021.64
2017-01-05T10:05:42.057Z,1021.65
2017-01-05T10:06:51.991Z,1021.64
2017-01-05T10:08:02.327Z,1021.6
2017-01-05T10:09:12.654Z,1021.62
2017-01-05T10:10:22.980Z,1021.59
2017-01-05T10:11:32.929Z,1021.66
2017-01-05T10:12:43.217Z,1021.69
2017-01-05T10:13:52.782Z,1021.67
2017-01-05T10:15:03.514Z,1021.69
2017-01-05T10:16:13.906Z,1021.75
2017-01-05T10:17:24.846Z,1021.74
2017-01-05T10:18:34.778Z,1021.83
2017-01-05T10:19:45.528Z,1021.83
2017-01-05T10:20:56.283Z,1021.81
2017-01-05T10:22:07.024Z,1021.83
2017-01-05T10:23:17.762Z,1021.9
2017-01-05T10:24:28.475Z,1021.86
2017-01-05T10:25:38.817Z,1021.88
2017-01-05T10:26:49.140Z,1021.89
2017-01-05T10:27:59.489Z,1021.85
2017-01-05T10:29:10.226Z,1021.86
2017-01-05T10:30:20.993Z,1021.93
2017-01-05T10:31:31.726Z,1021.95
2017-01-05T10:32:41.670Z,1021.94
2017-01-05T10:33:52.401Z,1022.02
2017-01-05T10:35:02.369Z,1022.02
2017-01-05T10:36:12.148Z,1022.03
2017-01-05T10:37:22.484Z,1022.04
2017-01-05T10:38:32.417Z,1022.11
2017-01-05T10:39:42.753Z,1022.02
2017-01-05T10:40:53.499Z,1022.05
2017-01-05T10:42:03.441Z,1022.12
2017-01-05T10:43:13.393Z,1022.13
2017-01-05T10:44:24.119Z,1022.19
2017-01-05T10:45:34.437Z,1022.11
2017-01-05T10:46:44.763Z,1022.11
2017-01-05T10:47:54.693Z,1022.19
2017-01-05T10:49:05.041Z,1022.21
2017-01-05T10:50:15.793Z,1022.2
2017-01-05T10:51:26.759Z,1022.22
2017-01-05T10:52:37.101Z,1022.24
2017-01-05T10:53:47.086Z,1022.24
2017-01-05T10:54:56.645Z,1022.25
2017-01-05T10:56:07.434Z,1022.31
2017-01-05T10:57:17.767Z,1022.3
2017-01-05T10:58:27.692Z,1022.3
2017-01-05T10:59:37.684Z,1022.31
2017-01-05T11:00:48.074Z,1022.31
2017-01-05T11:01:58.004Z,1022.34
2017-01-05T11:03:08.346Z,1022.39
2017-01-05T11:04:17.870Z,1022.34
2017-01-05T11:05:27.825Z,1022.34
2017-01-05T11:06:38.174Z,1022.33
2017-01-05T11:07:48.915Z,1022.33
2017-01-05T11:08:59.255Z,1022.32
2017-01-05T11:10:09.995Z,1022.36
2017-01-05T11:11:20.349Z,1022.35
2017-01-05T11:12:30.680Z,1022.3
2017-01-05T11:13:41.035Z,1022.4
2017-01-05T11:14:51.767Z,1022.39
2017-01-05T11:16:01.717Z,1022.39
2017-01-05T11:17:12.452Z,1022.43
2017-01-05T11:18:22.404Z,1022.46
2017-01-05T11:19:32.730Z,1022.43
2017-01-05T11:20:42.273Z,1022.45
2017-01-05T11:21:52.608Z,1022.45
2017-01-05T11:23:02.163Z,1022.42
2017-01-05T11:24:12.522Z,1022.43
2017-01-05T11:25:23.362Z,1022.43
2017-01-05T11:26:34.119Z,1022.51
2017-01-05T11:27:44.884Z,1022.46
2017-01-05T11:28:55.245Z,1022.51
2017-01-05T11:30:05.966Z,1022.54
2017-01-05T11:31:16.333Z,1022.58
2017-01-05T11:32:25.885Z,1022.56
2017-01-05T11:33:36.628Z,1022.62
2017-01-05T11:34:46.970Z,1022.61
2017-01-05T11:35:57.318Z,1022.65
2017-01-05T11:37:07.709Z,1022.63
2017-01-05T11:38:18.052Z,1022.61
2017-01-05T11:39:28.013Z,1022.63
2017-01-05T11:40:38.848Z,1022.63
2017-01-05T11:41:49.849Z,1022.64
2017-01-05T11:42:59.796Z,1022.73
2017-01-05T11:44:09.747Z,1022.74
2017-01-05T11:45:20.496Z,1022.8
2017-01-05T11:46:31.300Z,1022.76
2017-01-05T11:47:41.293Z,1022.77
2017-01-05T11:48:51.940Z,1022.83
2017-01-05T11:50:02.266Z,1022.82
2017-01-05T11:51:13.050Z,1022.89
2017-01-05T11:52:23.053Z,1022.9
2017-01-05T11:53:33.797Z,1022.9
2017-01-05T11:54:44.140Z,1022.89
2017-01-05T11:55:54.499Z,1022.96
2017-01-05T11:57:05.225Z,1023.05
2017-01-05T11:58:15.836Z,1023.03
2017-01-05T11:59:26.561Z,1023.07
2017-01-05T12:00:36.136Z,1023.04
2017-01-05T12:01:46.466Z,1023.07
2017-01-05T12:02:56.780Z,1023.11
2017-01-05T12:04:07.520Z,1023.17
2017-01-05T12:05:18.239Z,1023.14
2017-01-05T12:06:28.965Z,1023.29
2017-01-05T12:07:38.485Z,1023.17
2017-01-05T12:08:48.804Z,1023.24
2017-01-05T12:09:59.562Z,1023.27
2017-01-05T12:11:09.888Z,1023.28
2017-01-05T12:12:20.604Z,1023.24
2017-01-05T12:13:31.322Z,1023.27
2017-01-05T12:14:41.230Z,1023.24
2017-01-05T12:15:51.542Z,1023.28
2017-01-05T12:17:02.077Z,1023.3
2017-01-05T12:18:12.374Z,1023.29
2017-01-05T12:19:22.297Z,1023.4
2017-01-05T12:20:32.994Z,1023.38
2017-01-05T12:21:43.303Z,1023.4
2017-01-05T12:22:53.612Z,1023.45
2017-01-05T12:24:03.124Z,1023.47
2017-01-05T12:25:13.058Z,1023.44
2017-01-05T12:26:23.781Z,1023.61
2017-01-05T12:27:34.092Z,1023.6
2017-01-05T12:28:44.819Z,1023.53
2017-01-05T12:29:55.202Z,1023.57
2017-01-05T12:31:05.261Z,1023.55
2017-01-05T12:32:15.995Z,1023.54
2017-01-05T12:33:26.699Z,1023.61
2017-01-05T12:34:37.436Z,1023.63
2017-01-05T12:35:47.773Z,1023.63
2017-01-05T12:36:57.687Z,1023.7
2017-01-05T12:38:08.218Z,1023.67
2017-01-05T12:39:18.556Z,1023.74
2017-01-05T12:40:28.485Z,1023.74
2017-01-05T12:41:38.406Z,1023.73
2017-01-05T12:42:49.091Z,1023.74
2017-01-05T12:43:59.403Z,1023.8
2017-01-05T12:45:09.737Z,1023.78
2017-01-05T12:46:20.045Z,1023.81
2017-01-05T12:47:30.732Z,1023.84
2017-01-05T12:48:41.033Z,1023.89
2017-01-05T12:49:50.577Z,1023.84
2017-01-05T12:51:00.942Z,1023.89
2017-01-05T12:52:11.241Z,1023.89
2017-01-05T12:53:21.951Z,1023.93
2017-01-05T12:54:32.265Z,1023.92
2017-01-05T12:55:42.588Z,1024
2017-01-05T12:56:51.716Z,1024
2017-01-05T12:58:01.633Z,1024.03
2017-01-05T12:59:11.544Z,1024.07
2017-01-05T13:00:21.850Z,1024.09
2017-01-05T13:01:32.146Z,1024.19
2017-01-05T13:02:42.845Z,1024.16
2017-01-05T13:03:53.151Z,1024.14
2017-01-05T13:05:03.454Z,1024.18
2017-01-05T13:06:12.976Z,1024.21
2017-01-05T13:07:22.502Z,1024.23
2017-01-05T13:08:32.007Z,1024.22
2017-01-05T13:09:42.731Z,1024.25
2017-01-05T13:10:53.041Z,1024.34
2017-01-05T13:12:03.365Z,1024.32
2017-01-05T13:13:13.285Z,1024.32
2017-01-05T13:14:23.985Z,1024.42
2017-01-05T13:15:33.900Z,1024.37
2017-01-05T13:16:43.803Z,1024.44
2017-01-05T13:17:54.119Z,1024.46
2017-01-05T13:19:04.827Z,1024.48
2017-01-05T13:20:14.751Z,1024.53
2017-01-05T13:21:25.683Z,1024.5
2017-01-05T13:22:36.371Z,1024.54
2017-01-05T13:23:46.668Z,1024.55
2017-01-05T13:24:56.972Z,1024.59
2017-01-05T13:26:07.277Z,1024.66
2017-01-05T13:27:17.968Z,1024.64
2017-01-05T13:28:28.678Z,1024.66
2017-01-05T13:29:38.604Z,1024.65
2017-01-05T13:30:48.514Z,1024.65
2017-01-05T13:31:59.241Z,1024.66
2017-01-05T13:33:09.576Z,1024.71
2017-01-05T13:34:20.661Z,1024.62
2017-01-05T13:35:30.978Z,1024.68
2017-01-05T13:36:41.676Z,1024.72
2017-01-05T13:37:52.001Z,1024.69
2017-01-05T13:39:01.512Z,1024.72
2017-01-05T13:40:11.426Z,1024.75
2017-01-05T13:41:22.129Z,1024.77
2017-01-05T13:42:32.057Z,1024.75
2017-01-05T13:43:42.362Z,1024.79
2017-01-05T13:44:51.524Z,1024.83
2017-01-05T13:46:01.829Z,1024.84
2017-01-05T13:47:12.182Z,1024.87
2017-01-05T13:48:22.870Z,1024.87
2017-01-05T13:49:32.786Z,1024.87
2017-01-05T13:50:43.497Z,1024.89
2017-01-05T13:51:54.211Z,1024.86
2017-01-05T13:53:04.158Z,1024.96
2017-01-05T13:54:14.891Z,1025.01
2017-01-05T13:55:25.231Z,1025.05
2017-01-05T13:56:36.250Z,1025.06
2017-01-05T13:57:46.958Z,1025.2
2017-01-05T13:58:57.297Z,1025.21
2017-01-05T14:00:06.838Z,1025.2
2017-01-05T14:01:17.170Z,1025.19
2017-01-05T14:02:26.285Z,1025.22
2017-01-05T14:03:36.206Z,1025.23
2017-01-05T14:04:46.946Z,1025.21
2017-01-05T14:05:57.251Z,1025.28
2017-01-05T14:07:07.201Z,1025.31
2017-01-05T14:08:17.522Z,1025.32
2017-01-05T14:09:28.239Z,1025.36
2017-01-05T14:10:37.761Z,1025.4
2017-01-05T14:11:48.078Z,1025.31
2017-01-05T14:12:58.400Z,1025.48
2017-01-05T14:14:08.706Z,1025.49